Time;durP1;ratioP1;P1;durP2;ratioP2;P2;SDS_P1;SDS_P2;PMS_P1;PMS_P2;Temp;Humidity;BMP_temperature;BMP_pressure;BME280_temperature;BME280_humidity;BME280_pressure;Samples;Min_cycle;Max_cycle;Signal;HPM_P1;HPM_P2
2022/03/21 00:00:58;;;;;;;57.80;51.50;;;;;;;1.44;73.99;102848.38;5009029;28;20030;-81
2022/03/21 00:03:31;;;;;;;55.70;48.17;;;;;;;1.50;73.76;102872.16;4991911;28;20060;-81
2022/03/21 00:06:06;;;;;;;58.03;51.72;;;;;;;1.19;74.28;102840.09;4991727;28;20038;-82
2022/03/21 00:08:31;;;;;;;56.88;50.78;;;;;;;1.49;74.07;102883.25;5009636;28;20034;-81
2022/03/21 00:10:59;;;;;;;58.83;52.42;;;;;;;1.50;74.50;102884.94;4990867;28;20030;-81
2022/03/21 00:13:30;;;;;;;57.40;49.72;;;;;;;1.36;75.24;102851.00;5008407;28;20026;-80
2022/03/21 00:15:56;;;;;;;60.28;53.63;;;;;;;1.34;75.05;102852.72;4991047;28;20030;-81
2022/03/21 00:18:25;;;;;;;60.22;53.72;;;;;;;1.36;75.62;102855.25;5008797;28;20041;-82
2022/03/21 00:20:53;;;;;;;60.53;54.10;;;;;;;1.49;75.21;102892.59;5008646;28;20034;-82
2022/03/21 00:23:19;;;;;;;59.45;52.90;;;;;;;1.62;75.64;102909.53;5009492;28;20116;-81
2022/03/21 00:25:47;;;;;;;60.58;54.08;;;;;;;1.50;75.98;102884.94;5008950;28;20049;-81
2022/03/21 00:28:13;;;;;;;61.00;50.93;;;;;;;1.28;75.22;102855.34;5008785;28;20030;-81
2022/03/21 00:30:40;;;;;;;56.50;50.05;;;;;;;1.25;75.21;102863.03;5008662;28;20569;-81
2022/03/21 00:33:08;;;;;;;58.70;52.35;;;;;;;1.38;75.33;102889.31;5007682;28;20097;-81
2022/03/21 00:35:43;;;;;;;58.90;52.63;;;;;;;1.24;75.51;102876.69;4990830;28;20021;-81
2022/03/21 00:38:13;;;;;;;59.20;52.83;;;;;;;1.21;75.76;102886.94;5008607;28;20080;-81
2022/03/21 00:40:44;;;;;;;57.75;50.85;;;;;;;1.12;75.27;102876.81;5008604;28;20021;-81
2022/03/21 00:43:10;;;;;;;57.80;51.65;;;;;;;1.27;75.29;102922.69;5009434;28;20025;-82
2022/03/21 00:45:35;;;;;;;58.67;52.30;;;;;;;1.21;75.27;102909.97;5019916;28;20457;-82
2022/03/21 00:48:01;;;;;;;57.30;51.13;;;;;;;1.15;75.53;102899.75;5016552;28;20037;-82
2022/03/21 00:50:27;;;;;;;59.67;52.22;;;;;;;0.94;75.60;102894.00;5008275;28;20033;-82
2022/03/21 00:52:57;;;;;;;60.25;53.72;;;;;;;1.14;75.82;102921.06;5008434;28;20377;-82
2022/03/21 00:55:26;;;;;;;58.97;52.67;;;;;;;1.12;75.84;102922.81;4989902;28;20021;-81
2022/03/21 00:57:52;;;;;;;57.42;51.17;;;;;;;1.03;75.52;102919.47;4990311;28;20046;-81
2022/03/21 01:00:20;;;;;;;60.85;54.28;;;;;;;0.81;75.69;102892.41;5014371;28;20496;-81
2022/03/21 01:03:09;;;;;;;62.30;52.58;;;;;;;0.99;76.56;102912.69;5010069;28;20432;-82
2022/03/21 01:06:02;;;;;;;60.00;51.78;;;;;;;0.98;76.36;102888.00;5027787;28;20056;-81
2022/03/21 01:08:59;;;;;;;64.45;55.53;;;;;;;1.18;77.15;102927.84;4998998;28;20575;-81
2022/03/21 01:11:25;;;;;;;64.95;54.67;;;;;;;1.18;77.50;102925.31;4982741;28;20049;-82
2022/03/21 01:13:50;;;;;;;61.67;54.80;;;;;;;1.09;77.27;102908.34;4990741;28;20028;-81
2022/03/21 01:16:18;;;;;;;60.83;53.03;;;;;;;1.26;77.44;102936.28;5007757;28;20030;-81
2022/03/21 01:18:46;;;;;;;61.55;54.42;;;;;;;1.29;77.42;102939.69;4990146;28;20072;-81
2022/03/21 01:21:12;;;;;;;61.92;53.95;;;;;;;1.26;77.61;102936.28;4973645;28;20041;-82
2022/03/21 01:23:38;;;;;;;68.43;58.97;;;;;;;1.11;78.37;102916.00;4989859;28;20068;-81
2022/03/21 01:26:03;;;;;;;64.50;57.55;;;;;;;1.28;78.11;102934.59;5007769;28;20104;-82
2022/03/21 01:28:29;;;;;;;65.00;56.83;;;;;;;1.19;78.17;102924.44;5007625;28;20236;-81
2022/03/21 01:30:54;;;;;;;63.10;56.38;;;;;;;1.29;78.11;102938.84;5007680;28;20132;-82
2022/03/21 01:33:22;;;;;;;63.22;56.45;;;;;;;1.01;78.56;102905.84;5024735;28;20030;-81
2022/03/21 01:35:49;;;;;;;63.50;54.00;;;;;;;0.95;78.18;102905.91;5012510;28;20059;-81
2022/03/21 01:38:20;;;;;;;63.05;56.17;;;;;;;1.04;78.47;102916.06;5006269;28;20112;-81
2022/03/21 01:40:45;;;;;;;63.10;56.25;;;;;;;1.03;78.90;102923.72;5007247;28;20026;-81
2022/03/21 01:43:13;;;;;;;64.35;54.67;;;;;;;1.04;79.05;102925.44;4973261;28;20025;-83
2022/03/21 01:45:39;;;;;;;64.32;57.15;;;;;;;0.95;78.80;102905.91;5007102;28;20026;-82
2022/03/21 01:48:09;;;;;;;67.22;58.08;;;;;;;0.92;79.04;102895.72;4982913;28;20034;-82
2022/03/21 01:50:37;;;;;;;68.10;59.25;;;;;;;0.94;78.93;102904.22;5009586;28;20037;-81
2022/03/21 01:55:55;;;;;;;63.08;54.42;;;;;;;0.89;78.06;102900.00;4964352;28;20066;-82
2022/03/21 01:58:21;;;;;;;61.72;54.88;;;;;;;0.82;77.78;102894.09;4965239;28;20055;-81
2022/03/21 02:00:47;;;;;;;62.95;56.22;;;;;;;1.10;78.10;102945.81;4941756;28;20045;-81
2022/03/21 02:03:22;;;;;;;61.30;54.50;;;;;;;0.87;78.71;102897.47;4948186;28;20062;-82
2022/03/21 02:05:48;;;;;;;65.50;58.40;;;;;;;0.86;79.55;102906.00;4949360;28;20393;-81
2022/03/21 02:08:15;;;;;;;65.35;56.70;;;;;;;1.20;78.53;102956.78;4965201;28;20046;-82
2022/03/21 02:10:43;;;;;;;63.95;56.63;;;;;;;1.26;78.84;102957.63;4965170;28;20165;-81
2022/03/21 02:13:10;;;;;;;63.95;53.63;;;;;;;1.26;79.05;102947.41;4948573;28;20094;-81
2022/03/21 02:15:36;;;;;;;63.03;56.03;;;;;;;1.28;78.72;102947.38;4948044;28;20452;-79
2022/03/21 02:18:03;;;;;;;62.92;53.60;;;;;;;1.30;79.28;102948.19;4948473;28;20600;-81
2022/03/21 02:20:35;;;;;;;61.97;54.35;;;;;;;1.27;78.78;102943.13;4948674;28;20039;-82
2022/03/21 02:23:38;;;;;;;61.60;53.30;;;;;;;1.38;78.34;102951.56;4965359;28;20035;-82
2022/03/21 02:26:07;;;;;;;61.40;51.85;;;;;;;1.30;78.82;102937.97;4949380;28;20042;-82
2022/03/21 02:28:33;;;;;;;58.72;52.25;;;;;;;1.28;78.82;102944.81;4945567;29;20027;-82
2022/03/21 02:30:58;;;;;;;59.42;49.70;;;;;;;1.24;78.45;102926.09;4946095;28;20031;-81
2022/03/21 02:33:24;;;;;;;60.22;52.70;;;;;;;1.26;78.72;102936.28;4989192;28;20417;-81
2022/03/21 02:35:51;;;;;;;58.10;51.75;;;;;;;1.28;78.76;102929.47;5002443;28;20028;-81
2022/03/21 02:38:19;;;;;;;60.08;53.67;;;;;;;1.30;79.36;102946.47;5025769;28;20492;-82
2022/03/21 02:40:45;;;;;;;59.35;52.60;;;;;;;1.32;79.06;102941.38;5008925;28;20108;-82
2022/03/21 02:43:10;;;;;;;61.40;51.40;;;;;;;1.24;78.96;102938.88;5007983;28;20025;-82
2022/03/21 02:45:36;;;;;;;59.53;52.25;;;;;;;1.19;79.15;102927.84;4989138;28;20034;-81
2022/03/21 02:48:08;;;;;;;57.92;51.63;;;;;;;1.24;79.10;102935.47;4989746;28;20030;-82
2022/03/21 02:51:02;;;;;;;58.35;49.08;;;;;;;1.04;79.20;102905.84;5005873;28;20381;-82
2022/03/21 02:53:30;;;;;;;55.45;47.70;;;;;;;0.96;79.42;102896.53;5002466;28;20142;-82
2022/03/21 02:55:58;;;;;;;58.03;49.20;;;;;;;1.20;79.48;102926.97;4993099;28;20385;-82
2022/03/21 02:58:29;;;;;;;56.15;47.38;;;;;;;1.15;80.06;102922.75;5010188;28;20291;-82
2022/03/21 03:01:06;;;;;;;55.60;47.65;;;;;;;1.02;80.22;102902.44;5010044;28;20385;-82
2022/03/21 03:03:32;;;;;;;52.15;45.40;;;;;;;1.01;79.95;102899.88;5009998;28;20037;-82
2022/03/21 03:06:19;;;;;;;53.20;46.85;;;;;;;1.00;81.10;102909.28;5009620;28;20140;-82
2022/03/21 03:09:03;;;;;;;50.78;42.97;;;;;;;1.01;81.19;102889.66;4992724;28;20057;-82
2022/03/21 03:11:37;;;;;;;52.88;45.83;;;;;;;1.02;81.56;102897.31;4992020;28;20021;-82
2022/03/21 03:14:08;;;;;;;52.60;44.42;;;;;;;1.00;80.44;102893.94;4991964;28;20033;-82
2022/03/21 03:16:44;;;;;;;51.97;44.33;;;;;;;1.13;80.94;102914.28;4992792;28;20029;-82
2022/03/21 03:19:12;;;;;;;51.58;41.65;;;;;;;1.08;80.85;102900.69;4992246;28;20444;-82
2022/03/21 03:21:41;;;;;;;50.30;43.07;;;;;;;1.29;81.52;102937.13;4992050;28;20021;-82
2022/03/21 03:24:12;;;;;;;49.00;41.45;;;;;;;1.03;81.74;102899.03;5009397;28;20022;-82
2022/03/21 03:26:38;;;;;;;49.33;41.95;;;;;;;1.06;81.98;102908.38;5009779;28;20490;-82
2022/03/21 03:29:09;;;;;;;46.92;39.20;;;;;;;0.99;81.78;102894.81;5008555;28;20032;-82
2022/03/21 03:31:53;;;;;;;46.65;40.33;;;;;;;1.01;82.03;102898.19;4975496;28;20046;-81
2022/03/21 03:34:21;;;;;;;46.92;38.75;;;;;;;1.05;82.08;102897.31;4990635;28;20026;-82
2022/03/21 03:36:48;;;;;;;50.00;41.58;;;;;;;1.03;82.32;102909.25;4992149;28;20315;-82
2022/03/21 03:39:18;;;;;;;50.70;41.83;;;;;;;1.10;82.71;102914.31;5026268;28;20026;-82
2022/03/21 03:41:46;;;;;;;46.17;39.53;;;;;;;1.15;81.96;102927.88;5029512;28;20037;-82
2022/03/21 03:44:11;;;;;;;47.78;37.85;;;;;;;1.09;81.66;102933.03;5019303;28;20032;-82
2022/03/21 03:46:37;;;;;;;44.75;39.85;;;;;;;1.12;82.15;102930.47;5009255;28;20037;-82
2022/03/21 03:49:02;;;;;;;45.20;39.97;;;;;;;1.16;81.36;102944.94;5008955;28;20050;-82
2022/03/21 03:51:27;;;;;;;46.08;39.90;;;;;;;0.90;81.93;102917.84;4991775;28;20084;-82
2022/03/21 03:53:55;;;;;;;45.90;39.30;;;;;;;0.90;81.72;102933.19;5006786;28;20032;-82
2022/03/21 03:56:30;;;;;;;48.67;38.40;;;;;;;1.06;81.17;102950.09;5028645;28;20029;-82
2022/03/21 03:58:56;;;;;;;43.42;38.38;;;;;;;0.88;82.19;102919.59;5028654;28;20025;-82
2022/03/21 04:01:21;;;;;;;49.03;40.05;;;;;;;0.84;82.79;102915.34;5028540;28;20030;-83
2022/03/21 04:03:47;;;;;;;46.47;38.70;;;;;;;1.02;83.35;102942.47;5010438;28;20514;-82
2022/03/21 04:06:14;;;;;;;46.22;39.33;;;;;;;0.88;83.47;102914.47;5007502;28;20455;-81
2022/03/21 04:08:40;;;;;;;50.58;38.55;;;;;;;1.26;84.38;102966.97;5006650;28;20453;-82
2022/03/21 04:11:09;;;;;;;50.67;42.63;;;;;;;1.13;85.16;102932.16;5028908;28;20061;-82
2022/03/21 04:13:34;;;;;;;50.42;43.63;;;;;;;1.23;84.55;102962.75;5028344;28;20128;-82
2022/03/21 04:16:00;;;;;;;53.42;44.90;;;;;;;1.19;84.91;102944.88;5028812;28;20036;-82
2022/03/21 04:18:26;;;;;;;52.92;43.33;;;;;;;1.29;84.59;102966.97;5028683;28;20350;-82
2022/03/21 04:20:52;;;;;;;50.40;42.35;;;;;;;1.19;84.11;102955.09;5028167;28;20030;-82
2022/03/21 04:23:18;;;;;;;47.03;39.60;;;;;;;1.26;83.72;102951.63;5028039;28;20160;-81
2022/03/21 04:25:45;;;;;;;49.85;41.97;;;;;;;1.18;83.85;102943.19;5010375;28;20477;-81
2022/03/21 04:28:11;;;;;;;46.83;40.67;;;;;;;1.17;83.82;102947.47;5028602;28;20025;-81
2022/03/21 04:30:38;;;;;;;46.63;40.20;;;;;;;1.10;82.61;102965.44;5010305;28;20373;-83
2022/03/21 04:33:09;;;;;;;51.35;42.40;;;;;;;1.06;82.56;102945.00;5010049;28;20030;-81
2022/03/21 04:35:34;;;;;;;46.13;40.78;;;;;;;1.14;82.42;102961.97;5027924;28;20104;-81
2022/03/21 04:37:59;;;;;;;46.90;40.65;;;;;;;1.09;83.05;102953.47;4995311;28;20113;-82
2022/03/21 04:40:26;;;;;;;47.45;41.45;;;;;;;1.02;83.45;102948.41;5008226;28;20197;-81
2022/03/21 04:42:51;;;;;;;50.97;43.33;;;;;;;1.06;83.58;102960.31;5008350;28;20041;-81
2022/03/21 04:45:17;;;;;;;50.17;42.25;;;;;;;1.10;83.44;102955.19;4992109;28;20021;-82
2022/03/21 04:47:43;;;;;;;49.55;42.13;;;;;;;1.12;83.23;102968.81;5011452;28;20030;-82
2022/03/21 04:50:09;;;;;;;51.15;43.85;;;;;;;1.12;83.60;102979.03;5011426;28;20041;-82
2022/03/21 04:52:35;;;;;;;47.63;41.60;;;;;;;1.12;83.71;102973.91;4997548;28;20025;-82
2022/03/21 04:55:01;;;;;;;47.05;41.13;;;;;;;0.97;83.03;102970.59;4996734;28;20025;-82
2022/03/21 04:57:27;;;;;;;46.10;40.97;;;;;;;0.94;82.92;102969.78;5028271;28;20128;-84
2022/03/21 04:59:58;;;;;;;50.05;43.15;;;;;;;0.96;83.05;102971.47;5006352;28;20042;-84
2022/03/21 05:02:46;;;;;;;50.67;45.10;;;;;;;0.84;83.67;102963.88;5004105;28;20045;-83
2022/03/21 05:05:12;;;;;;;51.45;42.58;;;;;;;0.88;83.05;102986.00;4996323;28;20108;-82
2022/03/21 05:07:52;;;;;;;52.58;44.50;;;;;;;0.78;83.17;102971.59;5005219;28;20029;-83
2022/03/21 05:10:18;;;;;;;55.15;47.45;;;;;;;0.75;83.53;102989.50;5008601;28;20033;-84
2022/03/21 05:12:44;;;;;;;55.50;48.45;;;;;;;0.73;83.35;102993.75;5010815;28;20025;-82
2022/03/21 05:15:09;;;;;;;54.70;46.88;;;;;;;0.67;83.42;102981.03;5008705;28;20080;-84
2022/03/21 05:17:35;;;;;;;58.15;46.60;;;;;;;0.75;83.38;102985.25;5009320;28;20025;-83
2022/03/21 05:20:01;;;;;;;56.03;47.42;;;;;;;0.71;83.00;102977.59;5021838;28;20036;-88
2022/03/21 05:22:26;;;;;;;55.75;46.72;;;;;;;0.76;82.84;102986.09;5010013;28;20032;-87
2022/03/21 05:35:55;;;;;;;59.05;47.75;;;;;;;0.72;83.46;102976.75;5028202;28;20075;-88
2022/03/21 05:38:25;;;;;;;55.28;47.65;;;;;;;0.76;83.52;102983.53;5009121;28;20035;-89
2022/03/21 05:41:00;;;;;;;56.03;49.92;;;;;;;0.78;83.32;102994.59;5006523;28;20029;-88
2022/03/21 05:43:29;;;;;;;102.35;89.40;;;;;;;0.81;84.09;102992.03;5008282;28;20075;-88
2022/03/21 05:45:55;;;;;;;110.68;98.50;;;;;;;0.67;83.89;102970.81;4991564;28;20072;-88
2022/03/21 05:51:07;;;;;;;63.85;52.08;;;;;;;0.56;84.34;102941.94;5009166;28;20084;-84
2022/03/21 05:53:32;;;;;;;59.92;52.17;;;;;;;0.77;83.78;102977.56;5007792;28;20051;-84
2022/03/21 05:56:00;;;;;;;63.08;54.28;;;;;;;0.73;84.77;102981.81;5011782;28;20036;-88
2022/03/21 05:58:26;;;;;;;57.45;50.28;;;;;;;0.55;84.54;102953.00;4987503;28;20068;-87
2022/03/21 06:00:52;;;;;;;60.22;50.42;;;;;;;0.46;84.55;102936.91;5008201;28;20497;-86
2022/03/21 06:03:18;;;;;;;57.63;48.05;;;;;;;0.75;84.63;102994.63;4999755;28;20041;-85
2022/03/21 06:05:44;;;;;;;56.40;47.95;;;;;;;0.72;84.47;102979.28;5026827;28;20025;-84
2022/03/21 06:08:10;;;;;;;55.70;45.00;;;;;;;0.81;84.02;103009.06;5026057;28;20412;-83
2022/03/21 06:10:38;;;;;;;56.30;46.60;;;;;;;0.71;83.71;102987.81;5025966;28;20492;-84
2022/03/21 06:13:05;;;;;;;54.83;46.42;;;;;;;0.71;83.82;102992.94;5019884;28;20025;-87
2022/03/21 06:15:32;;;;;;;56.08;46.15;;;;;;;0.65;84.04;102998.06;5022626;28;20030;-89
2022/03/21 06:17:59;;;;;;;55.65;47.25;;;;;;;0.67;84.16;103011.66;5026734;28;20159;-84
2022/03/21 06:20:25;;;;;;;54.97;46.70;;;;;;;0.64;83.94;103007.44;5025984;28;20030;-83
2022/03/21 06:22:50;;;;;;;54.03;47.65;;;;;;;0.56;84.45;103003.22;5027762;28;20029;-85
2022/03/21 06:25:15;;;;;;;55.80;47.08;;;;;;;0.63;84.44;103004.88;5029395;28;20021;-85
2022/03/21 06:27:41;;;;;;;58.85;49.75;;;;;;;0.65;84.88;103013.38;5029781;28;20562;-85
2022/03/21 06:30:08;;;;;;;57.58;48.85;;;;;;;0.71;85.23;103018.47;5022865;28;20042;-86
2022/03/21 06:32:35;;;;;;;59.45;48.92;;;;;;;0.70;85.16;103016.78;5009883;28;20156;-86
2022/03/21 06:35:00;;;;;;;61.40;50.08;;;;;;;0.73;85.44;103019.28;5010467;28;20485;-86
2022/03/21 06:37:25;;;;;;;59.67;50.75;;;;;;;0.79;86.28;103030.31;5010075;28;20021;-84
2022/03/21 06:39:51;;;;;;;58.53;47.67;;;;;;;0.80;87.09;103023.50;5019503;28;20034;-88
2022/03/21 06:42:21;;;;;;;56.47;48.83;;;;;;;0.90;86.81;103037.94;5023237;28;20057;-83
2022/03/21 06:44:46;;;;;;;58.15;48.53;;;;;;;0.94;86.72;103044.72;5021281;28;20076;-84
2022/03/21 06:47:12;;;;;;;56.70;48.25;;;;;;;0.91;86.32;103021.75;5020611;28;20132;-88
2022/03/21 06:49:37;;;;;;;58.72;47.00;;;;;;;0.99;86.55;103034.50;5023579;28;20030;-87
2022/03/21 06:52:05;;;;;;;54.47;45.78;;;;;;;1.12;86.75;103045.47;5029556;28;20606;-85
2022/03/21 06:54:31;;;;;;;56.42;47.92;;;;;;;1.16;86.85;103037.78;5029750;28;20018;-89
2022/03/21 06:56:56;;;;;;;59.65;47.50;;;;;;;1.10;87.24;103016.53;5008170;28;20493;-87
2022/03/21 06:59:22;;;;;;;59.80;46.28;;;;;;;1.34;87.74;103041.91;5020858;28;20057;-87
2022/03/21 07:01:48;;;;;;;59.05;48.17;;;;;;;1.34;87.79;103026.56;5018093;28;20370;-84
2022/03/21 07:04:13;;;;;;;58.28;46.92;;;;;;;1.38;87.41;103033.38;5025710;28;20048;-89
2022/03/21 07:06:39;;;;;;;55.78;48.22;;;;;;;1.54;87.73;103045.13;5027798;28;20052;-87
2022/03/21 07:09:04;;;;;;;54.70;47.17;;;;;;;1.43;87.61;103021.38;5009680;28;20474;-87
2022/03/21 07:11:31;;;;;;;55.53;46.50;;;;;;;1.67;87.40;103055.28;5012306;28;20018;-83
2022/03/21 07:13:56;;;;;;;53.75;45.58;;;;;;;1.77;87.83;103050.06;5010305;28;20057;-87
2022/03/21 07:16:22;;;;;;;55.70;47.45;;;;;;;1.70;88.40;103029.66;5000905;28;20117;-89
2022/03/21 07:18:48;;;;;;;51.78;44.42;;;;;;;1.74;87.47;103026.22;5009262;28;20034;-86
2022/03/21 07:21:15;;;;;;;51.85;46.10;;;;;;;1.87;88.08;103027.81;5009555;28;20025;-82
2022/03/21 07:23:40;;;;;;;53.33;47.33;;;;;;;2.08;88.09;103060.03;5009772;28;20030;-82
2022/03/21 07:26:06;;;;;;;59.55;49.42;;;;;;;2.12;88.18;103054.84;5009236;28;20377;-87
2022/03/21 07:28:31;;;;;;;50.28;43.13;;;;;;;2.23;87.63;103056.44;5009279;28;20072;-84
2022/03/21 07:30:57;;;;;;;52.78;43.95;;;;;;;2.28;87.40;103054.66;5013725;28;20075;-86
2022/03/21 07:33:24;;;;;;;50.65;43.28;;;;;;;2.46;87.42;103062.13;5016358;28;20513;-83
2022/03/21 07:35:50;;;;;;;49.92;43.40;;;;;;;2.56;87.32;103061.16;5008471;28;20033;-83
2022/03/21 07:38:15;;;;;;;51.83;41.17;;;;;;;2.57;87.86;103049.19;5009415;28;20499;-85
2022/03/21 07:40:41;;;;;;;47.40;41.60;;;;;;;2.73;87.88;103057.56;5016588;28;20478;-83
2022/03/21 07:43:06;;;;;;;46.50;40.47;;;;;;;2.76;87.46;103042.16;5019204;28;20076;-83
2022/03/21 07:48:16;;;;;;;48.17;40.80;;;;;;;3.07;87.45;103063.06;5017282;28;20524;-88
2022/03/21 07:50:41;;;;;;;44.88;38.17;;;;;;;3.18;87.08;103056.06;5028546;28;20029;-87
2022/03/21 07:53:07;;;;;;;49.40;39.25;;;;;;;3.27;87.42;103060.19;5010113;28;20505;-83
2022/03/21 07:55:32;;;;;;;46.17;39.83;;;;;;;3.42;87.15;103059.97;5028734;28;20568;-83
2022/03/21 07:57:59;;;;;;;48.75;39.22;;;;;;;3.58;87.04;103066.56;5017302;28;20061;-83
2022/03/21 08:00:26;;;;;;;43.67;38.15;;;;;;;3.72;86.81;103068.88;5028403;28;20036;-88
2022/03/21 08:02:51;;;;;;;46.85;38.83;;;;;;;3.77;86.29;103066.25;5017905;28;20033;-86
2022/03/21 08:05:17;;;;;;;43.85;37.72;;;;;;;3.82;86.96;103056.75;4990489;28;20500;-86
2022/03/21 08:07:43;;;;;;;45.83;37.90;;;;;;;3.81;86.15;103042.22;5008065;28;20033;-86
2022/03/21 08:10:10;;;;;;;44.88;36.45;;;;;;;4.02;86.07;103057.25;5008570;28;20088;-86
2022/03/21 08:12:35;;;;;;;40.08;35.35;;;;;;;4.25;85.77;103080.78;5007871;28;20417;-82
2022/03/21 08:15:01;;;;;;;43.00;36.63;;;;;;;4.34;85.78;103068.63;5010493;28;20040;-88
2022/03/21 08:17:27;;;;;;;40.97;34.33;;;;;;;4.39;85.28;103061.66;5016279;28;20108;-86
2022/03/21 08:19:55;;;;;;;42.28;35.88;;;;;;;4.38;84.66;103049.72;4997916;28;20033;-87
2022/03/21 08:22:21;;;;;;;40.22;35.00;;;;;;;4.67;85.26;103073.09;5008090;28;20040;-82
2022/03/21 08:24:46;;;;;;;39.40;32.97;;;;;;;4.71;84.96;103054.16;5007674;28;20033;-85
2022/03/21 08:27:12;;;;;;;38.00;32.42;;;;;;;4.80;84.57;103046.22;5008396;28;20112;-84
2022/03/21 08:29:39;;;;;;;37.50;31.52;;;;;;;4.88;83.95;103045.25;4991518;28;20129;-85
2022/03/21 08:32:06;;;;;;;40.30;32.85;;;;;;;5.15;84.06;103072.88;5008321;28;20377;-82
2022/03/21 08:34:31;;;;;;;40.60;34.53;;;;;;;5.26;84.23;103073.47;5023878;28;20060;-83
2022/03/21 08:36:57;;;;;;;40.50;32.97;;;;;;;5.35;83.68;103067.28;4996056;28;20342;-81
2022/03/21 08:39:22;;;;;;;36.15;32.00;;;;;;;5.47;83.30;103067.00;5018154;28;20040;-82
2022/03/21 08:41:47;;;;;;;35.92;31.27;;;;;;;5.70;83.01;103074.16;5007568;28;20121;-85
2022/03/21 08:44:13;;;;;;;35.70;29.38;;;;;;;5.80;82.55;103070.47;5007556;28;20038;-84
2022/03/21 08:46:38;;;;;;;36.10;29.60;;;;;;;5.96;82.56;103075.22;5010794;28;20480;-83
2022/03/21 08:51:50;;;;;;;36.53;28.38;;;;;;;6.32;81.92;103074.25;5025073;28;20139;-86
2022/03/21 08:54:16;;;;;;;34.25;27.63;;;;;;;6.33;81.54;103060.47;5027159;28;20014;-84
2022/03/21 08:56:41;;;;;;;33.22;26.75;;;;;;;6.66;81.03;103075.88;5026812;28;20397;-86
2022/03/21 08:59:07;;;;;;;30.05;24.88;;;;;;;6.56;80.47;103030.63;5019249;28;20783;-83
2022/03/21 09:01:33;;;;;;;30.08;25.25;;;;;;;6.75;79.54;103047.22;4996897;28;20057;-82
2022/03/21 09:04:02;;;;;;;30.67;25.30;;;;;;;7.12;79.56;103061.59;5012234;28;20037;-85
2022/03/21 09:06:28;;;;;;;28.67;21.77;;;;;;;7.22;77.18;103073.31;5006913;28;20053;-84
2022/03/21 09:08:57;;;;;;;28.00;22.38;;;;;;;7.31;76.75;103052.38;4989588;28;20081;-85
2022/03/21 09:11:22;;;;;;;27.38;20.80;;;;;;;7.40;74.78;103057.25;5017420;28;20416;-85
2022/03/21 09:13:48;;;;;;;24.85;19.33;;;;;;;7.56;74.36;103048.97;5026991;28;20079;-83
2022/03/21 09:16:15;;;;;;;24.40;19.33;;;;;;;7.61;73.11;103044.50;5020205;28;20037;-84
2022/03/21 09:18:43;;;;;;;26.17;20.73;;;;;;;7.81;73.88;103060.19;5009464;28;20044;-85
2022/03/21 09:21:09;;;;;;;24.10;19.38;;;;;;;7.91;72.38;103055.53;5001103;28;20033;-82
2022/03/21 09:23:36;;;;;;;24.13;19.77;;;;;;;7.91;71.78;103046.06;5006681;28;20041;-86
2022/03/21 09:26:10;;;;;;;23.60;18.55;;;;;;;8.08;71.27;103065.28;4989169;28;20026;-87
2022/03/21 09:28:37;;;;;;;26.30;18.98;;;;;;;8.11;71.48;103032.44;5006891;28;20459;-84
2022/03/21 09:31:02;;;;;;;24.40;18.95;;;;;;;8.09;70.00;103015.31;5007356;28;20047;-84
2022/03/21 09:33:29;;;;;;;24.05;19.15;;;;;;;8.46;69.93;103054.44;5007147;28;20037;-87
2022/03/21 09:35:54;;;;;;;23.45;18.60;;;;;;;8.55;69.08;103049.84;5019466;28;20108;-82
2022/03/21 09:38:20;;;;;;;25.20;18.75;;;;;;;8.82;68.07;103053.94;5017111;28;20112;-86
2022/03/21 09:40:46;;;;;;;23.65;17.50;;;;;;;8.73;66.85;103034.47;4993366;28;20462;-87
2022/03/21 09:43:12;;;;;;;21.98;16.77;;;;;;;8.90;66.86;103036.38;5008831;28;20026;-82
2022/03/21 09:45:38;;;;;;;20.73;17.25;;;;;;;9.00;66.72;103037.72;5006355;28;20034;-82
2022/03/21 09:48:08;;;;;;;21.80;17.15;;;;;;;9.20;66.15;103043.84;5006900;28;20056;-86
2022/03/21 09:50:35;;;;;;;24.40;17.48;;;;;;;9.31;66.10;103052.03;5007332;28;20248;-84
2022/03/21 09:53:08;;;;;;;22.17;17.80;;;;;;;9.32;64.96;103030.38;5006532;28;20034;-84
2022/03/21 09:55:34;;;;;;;23.33;18.15;;;;;;;9.52;65.19;103056.31;5006567;28;20050;-85
2022/03/21 09:57:59;;;;;;;25.42;17.85;;;;;;;9.57;64.49;103049.19;5006100;28;20069;-84
2022/03/21 10:00:28;;;;;;;23.77;18.30;;;;;;;9.72;64.50;103042.53;5019899;28;20405;-83
2022/03/21 10:02:53;;;;;;;25.38;18.40;;;;;;;9.80;64.94;103037.00;5015417;28;20022;-83
2022/03/21 10:05:31;;;;;;;24.20;19.05;;;;;;;9.94;65.43;103042.44;5006424;28;20040;-83
2022/03/21 10:08:20;;;;;;;29.25;18.50;;;;;;;10.01;64.76;103033.47;5006725;28;20037;-86
2022/03/21 10:10:57;;;;;;;25.08;18.80;;;;;;;10.18;63.98;103044.88;4993012;28;20030;-87
2022/03/21 10:13:25;;;;;;;23.17;18.80;;;;;;;10.23;63.71;103042.91;5026508;28;20034;-85
2022/03/21 10:16:15;;;;;;;23.38;18.85;;;;;;;10.36;64.20;103046.66;5008146;28;20041;-86
2022/03/21 10:18:52;;;;;;;26.17;19.00;;;;;;;10.43;64.28;103037.69;5024522;28;20508;-82
2022/03/21 10:21:18;;;;;;;27.85;19.85;;;;;;;10.53;64.44;103035.53;5013962;28;20075;-83
2022/03/21 10:23:46;;;;;;;26.75;19.45;;;;;;;10.53;61.38;103025.97;5011255;28;20041;-83
2022/03/21 10:26:28;;;;;;;24.10;19.45;;;;;;;10.66;63.27;103033.19;5006122;28;20414;-83
2022/03/21 10:29:01;;;;;;;25.30;18.88;;;;;;;10.61;62.56;103008.31;5011313;28;20034;-84
2022/03/21 10:31:46;;;;;;;24.50;18.85;;;;;;;10.82;62.48;103021.19;4989930;28;20109;-79
2022/03/21 10:34:17;;;;;;;24.45;19.08;;;;;;;10.85;60.44;103037.47;5013254;28;20488;-83
2022/03/21 10:37:06;;;;;;;22.92;18.98;;;;;;;11.00;62.45;103025.50;5007932;28;20132;-83
2022/03/21 10:39:38;;;;;;;24.13;18.20;;;;;;;11.10;61.48;103034.53;5018221;28;20119;-83
2022/03/21 10:42:07;;;;;;;23.85;18.02;;;;;;;11.27;60.01;103014.69;5013569;28;20214;-87
2022/03/21 10:44:33;;;;;;;23.20;18.15;;;;;;;11.37;59.51;103023.69;5014659;28;20030;-87
2022/03/21 10:47:05;;;;;;;22.67;17.17;;;;;;;11.60;58.59;103020.78;5015489;28;20021;-87
2022/03/21 10:49:31;;;;;;;23.27;17.73;;;;;;;11.56;58.51;103021.84;5006226;28;20312;-87
2022/03/21 10:51:57;;;;;;;25.17;17.67;;;;;;;11.70;59.35;103013.38;4988236;28;20386;-87
2022/03/21 10:54:45;;;;;;;26.45;17.48;;;;;;;11.66;59.85;102988.44;5025966;28;20035;-86
2022/03/21 10:57:33;;;;;;;22.27;17.67;;;;;;;11.86;59.23;103019.47;5025520;28;20053;-86
2022/03/21 11:00:11;;;;;;;23.58;17.25;;;;;;;11.79;59.77;102991.25;5007830;28;20116;-87
2022/03/21 11:02:47;;;;;;;24.48;18.20;;;;;;;12.02;57.22;103018.66;4999058;28;20034;-83
2022/03/21 11:05:13;;;;;;;22.45;16.83;;;;;;;12.07;58.02;102988.91;5017769;28;20033;-88
2022/03/21 11:07:39;;;;;;;25.35;17.98;;;;;;;12.03;57.66;102960.53;5019478;28;20148;-85
2022/03/21 11:10:08;;;;;;;24.95;18.40;;;;;;;12.36;56.68;103004.69;5012892;28;20185;-89
2022/03/21 11:12:34;;;;;;;20.33;17.35;;;;;;;12.30;56.92;102974.66;4991724;28;20064;-85
2022/03/21 11:15:07;;;;;;;25.35;18.38;;;;;;;12.45;57.67;102988.59;5010738;28;20021;-90
2022/03/21 11:17:32;;;;;;;25.15;18.20;;;;;;;12.62;56.45;103006.72;5002359;28;20026;-83
2022/03/21 11:20:00;;;;;;;24.45;18.20;;;;;;;12.63;56.89;103008.41;5012629;28;20528;-82
2022/03/21 11:22:26;;;;;;;26.33;17.80;;;;;;;12.71;53.67;103011.41;5009610;28;20021;-82
2022/03/21 11:24:52;;;;;;;23.10;17.73;;;;;;;12.77;54.38;103005.84;5011302;28;20037;-83
2022/03/21 11:27:46;;;;;;;24.13;18.52;;;;;;;13.04;56.41;103007.84;5008669;28;20029;-84
2022/03/21 11:30:41;;;;;;;24.67;18.88;;;;;;;13.14;56.82;103003.78;5014400;28;20080;-88
2022/03/21 11:33:19;;;;;;;25.05;18.58;;;;;;;12.99;54.15;102983.81;4981284;28;20045;-87
2022/03/21 11:35:51;;;;;;;26.25;18.50;;;;;;;13.03;54.11;102974.91;5007613;28;20029;-86
2022/03/21 11:38:28;;;;;;;25.15;18.92;;;;;;;13.16;53.46;102991.50;5007248;28;20374;-86
2022/03/21 11:41:14;;;;;;;24.48;18.67;;;;;;;13.22;54.91;102996.38;4990780;28;20111;-87
2022/03/21 11:43:43;;;;;;;25.85;18.77;;;;;;;13.23;52.71;103002.41;5008079;28;20382;-89
2022/03/21 11:46:29;;;;;;;23.02;18.80;;;;;;;13.28;55.02;102980.38;5008607;28;20042;-82